Time;durP1;ratioP1;P1;durP2;ratioP2;P2;SDS_P1;SDS_P2;PMS_P1;PMS_P2;Temp;Humidity;BMP_temperature;BMP_pressure;BME280_temperature;BME280_humidity;BME280_pressure;Samples;Min_cycle;Max_cycle;Signal;HPM_P1;HPM_P2
2023/09/10 00:00:03;;;;;;;7.78;6.97;;;;;;;-144.30;61.48;84963.09;5068923;28;20677;-55
2023/09/10 00:02:30;;;;;;;7.10;5.35;;;;;;;-144.30;61.76;84990.91;5068755;28;20332;-49
2023/09/10 00:04:56;;;;;;;5.07;4.50;;;;;;;-144.30;61.72;84996.88;5068950;28;20203;-49
2023/09/10 00:07:25;;;;;;;6.47;4.82;;;;;;;-144.30;62.41;84933.28;5068850;28;20206;-48
2023/09/10 00:09:52;;;;;;;8.38;4.70;;;;;;;-144.30;62.64;85002.84;5068933;28;20200;-47
2023/09/10 00:12:19;;;;;;;9.57;7.10;;;;;;;-144.30;63.12;84998.88;5069004;28;20250;-55
2023/09/10 00:14:45;;;;;;;8.27;5.27;;;;;;;-144.30;62.57;85018.75;5068994;28;20192;-48
2023/09/10 00:17:12;;;;;;;8.17;4.93;;;;;;;-144.30;62.88;85014.78;5068381;28;20625;-55
2023/09/10 00:19:39;;;;;;;5.70;4.33;;;;;;;-144.30;63.41;85010.78;5068909;28;20196;-55
2023/09/10 00:22:06;;;;;;;4.88;4.40;;;;;;;-144.30;63.85;85020.72;5068637;28;20226;-56
2023/09/10 00:24:35;;;;;;;6.30;4.83;;;;;;;-144.30;64.42;85052.53;5068793;28;20200;-49
2023/09/10 00:27:02;;;;;;;10.07;5.10;;;;;;;-144.30;64.40;85050.53;5072086;28;20236;-56
2023/09/10 00:29:29;;;;;;;9.63;5.70;;;;;;;-144.30;64.58;85014.78;5072210;28;20196;-49
2023/09/10 00:31:55;;;;;;;10.57;6.83;;;;;;;-144.30;64.45;85034.66;5072290;28;20200;-56
2023/09/10 00:34:22;;;;;;;10.60;7.37;;;;;;;-144.30;64.54;85020.72;5072122;28;20191;-56
2023/09/10 00:36:49;;;;;;;17.73;8.83;;;;;;;-144.30;64.72;85028.69;5072263;28;20196;-56
2023/09/10 00:39:16;;;;;;;13.47;9.00;;;;;;;-144.30;65.00;85026.69;5072026;28;20196;-56
2023/09/10 00:41:45;;;;;;;11.83;8.17;;;;;;;-144.30;64.77;85042.59;5072058;28;20230;-55
2023/09/10 00:44:12;;;;;;;15.43;8.87;;;;;;;-144.30;64.95;85030.66;5071867;28;20208;-49
2023/09/10 00:46:39;;;;;;;8.40;7.63;;;;;;;-144.30;65.12;85018.75;5072242;28;20191;-48
2023/09/10 00:49:06;;;;;;;10.90;6.97;;;;;;;-144.30;65.73;85078.38;5071843;28;20206;-48
2023/09/10 00:51:33;;;;;;;6.80;6.20;;;;;;;-144.30;66.20;85030.66;5072006;28;20199;-49
2023/09/10 00:54:01;;;;;;;10.47;6.83;;;;;;;-144.30;66.64;85026.69;5071768;28;20200;-49
2023/09/10 00:56:28;;;;;;;9.10;6.20;;;;;;;-144.30;67.14;85038.63;5071726;28;20199;-48
2023/09/10 00:58:57;;;;;;;8.80;6.67;;;;;;;-144.30;67.55;85066.44;5071823;28;20196;-55
2023/09/10 01:01:24;;;;;;;8.90;5.93;;;;;;;-144.30;67.49;85066.44;5071402;28;20223;-55
2023/09/10 01:03:51;;;;;;;7.03;5.00;;;;;;;-144.30;68.02;85108.19;5071792;28;20200;-56
2023/09/10 01:06:18;;;;;;;8.90;5.70;;;;;;;-144.30;68.53;85040.59;5071585;28;20199;-49
2023/09/10 01:08:46;;;;;;;8.77;5.00;;;;;;;-144.30;69.10;85092.28;5071594;28;20570;-56
2023/09/10 01:11:24;;;;;;;10.27;5.67;;;;;;;-144.30;69.71;85104.22;5071272;28;20214;-56
2023/09/10 01:13:58;;;;;;;6.67;5.60;;;;;;;-144.30;69.86;85080.38;5071878;28;20196;-57
2023/09/10 01:16:36;;;;;;;7.07;5.20;;;;;;;-144.30;70.04;85102.22;5071354;28;20200;-49
2023/09/10 01:19:08;;;;;;;7.47;5.07;;;;;;;-144.30;69.52;85124.09;5071067;28;20228;-48
2023/09/10 01:21:56;;;;;;;7.77;4.10;;;;;;;-144.30;67.56;85098.25;5071184;28;20203;-49
2023/09/10 01:24:27;;;;;;;5.50;4.27;;;;;;;-144.30;66.50;85082.34;5071342;28;20207;-56
2023/09/10 01:26:59;;;;;;;4.87;3.60;;;;;;;-144.30;64.98;85050.53;5071430;28;20291;-50
2023/09/10 01:29:26;;;;;;;6.93;4.03;;;;;;;-144.30;64.62;85118.13;5071218;28;20200;-56
2023/09/10 01:31:58;;;;;;;8.03;4.47;;;;;;;-144.30;64.49;85052.53;5071348;28;20269;-55
2023/09/10 01:34:28;;;;;;;4.13;3.90;;;;;;;-144.30;65.27;85126.09;5071173;28;20195;-55
2023/09/10 01:37:03;;;;;;;4.60;3.83;;;;;;;-144.30;65.57;85100.25;5071076;28;20196;-50
2023/09/10 01:39:37;;;;;;;5.93;3.87;;;;;;;-144.30;65.95;85140.00;5071240;28;20202;-56
2023/09/10 01:42:06;;;;;;;4.53;3.87;;;;;;;-144.30;66.10;85165.84;5070821;28;20275;-57
2023/09/10 01:44:35;;;;;;;4.27;3.87;;;;;;;-144.30;66.31;85141.97;5070823;28;20231;-49
2023/09/10 01:47:02;;;;;;;4.37;3.90;;;;;;;-144.30;66.32;85134.03;5070631;28;20200;-50
2023/09/10 01:49:29;;;;;;;4.03;3.63;;;;;;;-144.30;66.59;85064.47;5071022;28;20200;-55
2023/09/10 01:51:56;;;;;;;4.00;3.70;;;;;;;-144.30;66.68;85141.97;5070923;28;20238;-56
2023/09/10 01:54:23;;;;;;;11.40;3.70;;;;;;;-144.30;66.75;85177.75;5070742;28;20196;-56
2023/09/10 01:56:50;;;;;;;4.93;3.90;;;;;;;-144.30;66.72;85153.91;5070742;28;20204;-55
2023/09/10 01:59:18;;;;;;;6.20;4.10;;;;;;;-144.30;66.80;85114.16;5070357;28;20219;-48
2023/09/10 02:01:45;;;;;;;4.13;3.70;;;;;;;-144.30;66.79;85145.97;5070599;28;20196;-50
2023/09/10 02:04:12;;;;;;;4.33;3.57;;;;;;;-144.30;66.76;85181.75;5070362;28;20204;-50
2023/09/10 02:06:39;;;;;;;3.27;3.07;;;;;;;-144.30;67.09;85205.59;5070485;28;20288;-57
2023/09/10 02:09:06;;;;;;;3.97;3.63;;;;;;;-144.30;67.63;85181.75;5070180;28;20287;-50
2023/09/10 02:11:33;;;;;;;3.70;3.40;;;;;;;-144.30;67.16;85171.81;5070241;28;20195;-48
2023/09/10 02:13:59;;;;;;;5.63;3.93;;;;;;;-144.30;66.54;85185.72;5070621;28;20583;-48
2023/09/10 02:16:28;;;;;;;6.57;3.53;;;;;;;-144.30;66.31;85207.59;5070213;28;20218;-47
2023/09/10 02:18:54;;;;;;;5.57;3.43;;;;;;;-144.30;66.78;85173.78;5070230;28;20665;-48
2023/09/10 02:21:21;;;;;;;7.43;2.93;;;;;;;-144.30;66.97;85201.63;5070132;28;20200;-55
2023/09/10 02:23:48;;;;;;;3.57;3.27;;;;;;;-144.30;67.19;85197.66;5070060;28;20210;-55
2023/09/10 02:26:16;;;;;;;6.07;3.37;;;;;;;-144.30;66.54;85213.53;5069892;28;20210;-55
2023/09/10 02:28:43;;;;;;;3.40;3.20;;;;;;;-144.30;66.63;85239.38;5070203;28;20196;-55
2023/09/10 02:31:10;;;;;;;5.10;2.60;;;;;;;-144.30;67.21;85193.66;5069796;28;20202;-54
2023/09/10 02:33:38;;;;;;;6.43;3.17;;;;;;;-144.30;66.80;85245.34;5070075;28;20737;-48
2023/09/10 02:36:06;;;;;;;4.33;3.40;;;;;;;-144.30;65.41;85229.44;5069851;28;20200;-49
2023/09/10 02:38:33;;;;;;;4.80;3.10;;;;;;;-144.30;65.53;85255.28;5069839;28;20196;-55
2023/09/10 02:41:00;;;;;;;8.57;3.27;;;;;;;-144.30;65.69;85475.94;5069879;28;20658;-56
2023/09/10 02:43:26;;;;;;;3.57;3.23;;;;;;;-144.30;65.85;85231.44;5070145;28;20676;-56
2023/09/10 02:45:53;;;;;;;4.47;3.20;;;;;;;-144.30;66.21;85239.38;5069988;28;20683;-56
2023/09/10 02:48:20;;;;;;;4.27;3.60;;;;;;;-144.30;66.18;85241.38;5069316;28;20656;-56
2023/09/10 02:50:48;;;;;;;3.60;3.30;;;;;;;-144.30;66.49;85235.41;5069653;28;20206;-56
2023/09/10 02:53:15;;;;;;;5.93;3.73;;;;;;;-144.30;66.83;85257.28;5069383;28;20657;-56
2023/09/10 02:55:42;;;;;;;4.37;3.97;;;;;;;-144.30;67.16;85273.19;5069922;28;20640;-56
2023/09/10 02:58:09;;;;;;;3.80;3.50;;;;;;;-144.30;66.65;85239.38;5069650;28;20309;-49
2023/09/10 03:00:36;;;;;;;7.13;3.20;;;;;;;-144.30;66.54;85253.31;5069689;28;20653;-48
2023/09/10 03:03:03;;;;;;;3.77;3.27;;;;;;;-144.30;67.07;85159.88;5069640;28;20285;-56
2023/09/10 03:05:34;;;;;;;5.70;3.20;;;;;;;-144.30;67.35;85243.38;5069780;28;20219;-56
2023/09/10 03:08:02;;;;;;;5.00;3.50;;;;;;;-144.30;67.60;85229.44;5069571;28;20269;-57
2023/09/10 03:10:29;;;;;;;4.27;3.33;;;;;;;-144.30;68.12;85255.28;5069529;28;20206;-50
2023/09/10 03:12:56;;;;;;;4.33;3.80;;;;;;;-144.30;68.35;85229.44;5069436;28;20223;-49
2023/09/10 03:15:22;;;;;;;3.93;3.63;;;;;;;-144.30;68.15;85245.34;5069311;28;20200;-48
2023/09/10 03:17:49;;;;;;;4.80;3.73;;;;;;;-144.30;67.67;85277.16;5069151;28;20227;-49
2023/09/10 03:20:16;;;;;;;3.40;3.10;;;;;;;-144.30;67.53;85247.34;5069146;28;20206;-55
2023/09/10 03:22:43;;;;;;;3.47;2.50;;;;;;;-144.30;68.02;85273.19;5069328;28;20288;-55
2023/09/10 03:25:12;;;;;;;3.80;3.10;;;;;;;-144.30;67.36;85265.22;5069113;28;20204;-56
2023/09/10 03:27:39;;;;;;;4.40;3.80;;;;;;;-144.30;67.77;85201.63;5069309;28;20202;-57
2023/09/10 03:30:07;;;;;;;4.73;3.10;;;;;;;-144.30;67.33;85241.38;5069010;28;20206;-49
2023/09/10 03:32:34;;;;;;;4.10;3.47;;;;;;;-144.30;66.97;85231.44;5069471;28;20219;-57
2023/09/10 03:35:03;;;;;;;4.67;3.20;;;;;;;-144.30;66.87;85261.25;5069362;28;20202;-56
2023/09/10 03:37:29;;;;;;;4.50;3.77;;;;;;;-144.30;67.29;85257.28;5069608;28;20620;-49
2023/09/10 03:39:56;;;;;;;3.90;3.60;;;;;;;-144.30;67.34;85257.28;5069331;28;20578;-49
2023/09/10 03:42:25;;;;;;;7.07;3.60;;;;;;;-144.30;67.09;85257.28;5069062;28;20191;-56
2023/09/10 03:44:52;;;;;;;4.37;3.30;;;;;;;-144.30;66.13;85207.59;5069090;28;20291;-56
2023/09/10 03:47:18;;;;;;;3.63;3.33;;;;;;;-144.30;65.57;85221.50;5068970;28;20198;-56
2023/09/10 03:49:45;;;;;;;4.50;3.33;;;;;;;-144.30;65.16;85209.56;5068999;28;20762;-56
2023/09/10 03:52:16;;;;;;;3.73;3.40;;;;;;;-144.30;64.90;85205.59;5068841;28;20236;-49
2023/09/10 03:54:43;;;;;;;3.60;3.30;;;;;;;-144.30;64.05;85185.72;5069027;28;20207;-48
2023/09/10 03:57:10;;;;;;;4.90;3.40;;;;;;;-144.30;63.81;85213.53;5068827;28;20192;-49
2023/09/10 03:59:38;;;;;;;4.93;3.03;;;;;;;-144.30;64.12;85229.44;5069212;28;20197;-56
2023/09/10 04:02:06;;;;;;;3.50;3.20;;;;;;;-144.30;63.07;85187.69;5072696;28;20215;-49
2023/09/10 04:04:34;;;;;;;2.87;2.53;;;;;;;-144.30;62.24;85193.66;5073002;28;20192;-48
2023/09/10 04:07:01;;;;;;;4.53;2.40;;;;;;;-144.30;61.88;85211.56;5072897;28;20206;-49
2023/09/10 04:09:29;;;;;;;3.30;3.00;;;;;;;-144.30;61.29;85229.44;5072606;28;20203;-49
2023/09/10 04:11:57;;;;;;;6.60;3.57;;;;;;;-144.30;61.23;85161.88;5072617;28;20202;-48
2023/09/10 04:14:24;;;;;;;3.60;3.03;;;;;;;-144.30;60.61;85181.75;5072384;28;20291;-48
2023/09/10 04:16:52;;;;;;;3.93;3.00;;;;;;;-144.30;60.68;85153.91;5072328;28;20729;-55
2023/09/10 04:19:19;;;;;;;2.93;2.67;;;;;;;-144.30;60.36;85159.88;5071912;28;20194;-56
2023/09/10 04:21:46;;;;;;;4.60;3.20;;;;;;;-144.30;60.50;85141.97;5071954;28;20200;-56
2023/09/10 04:24:13;;;;;;;3.73;3.20;;;;;;;-144.30;60.57;85187.69;5071841;28;20199;-49
2023/09/10 04:26:40;;;;;;;4.47;2.87;;;;;;;-144.30;59.83;85171.81;5072002;28;20192;-50
2023/09/10 04:29:07;;;;;;;4.10;3.00;;;;;;;-144.30;59.49;85138.00;5071641;28;20603;-56
2023/09/10 04:31:40;;;;;;;5.93;3.30;;;;;;;-144.30;59.09;85151.94;5072321;28;20573;-56
2023/09/10 04:34:08;;;;;;;3.77;3.37;;;;;;;-144.30;59.38;85128.06;5071596;28;20219;-56
2023/09/10 04:36:35;;;;;;;4.97;3.10;;;;;;;-144.30;59.40;85106.22;5067521;28;20196;-56
2023/09/10 04:39:07;;;;;;;4.90;3.00;;;;;;;-144.30;59.23;85130.06;5071605;28;20210;-49
2023/09/10 04:41:35;;;;;;;5.37;3.03;;;;;;;-144.30;59.00;85090.31;5060124;28;20262;-56
2023/09/10 04:44:02;;;;;;;4.53;2.93;;;;;;;-144.30;58.28;85062.47;5071912;28;20200;-56
2023/09/10 04:46:29;;;;;;;3.57;3.10;;;;;;;-144.30;57.80;85048.56;5075583;28;20257;-49
2023/09/10 04:48:57;;;;;;;3.87;3.10;;;;;;;-144.30;57.24;84909.41;5072401;28;20223;-56
2023/09/10 04:51:26;;;;;;;3.53;3.22;;;;;;;-144.30;57.12;85010.78;5070920;28;20254;-56
2023/09/10 04:53:52;;;;;;;3.40;3.10;;;;;;;-144.30;57.40;84982.97;5071771;28;20596;-56
2023/09/10 04:56:19;;;;;;;3.83;3.53;;;;;;;-144.30;57.72;85028.69;5071630;28;20287;-56
2023/09/10 04:58:46;;;;;;;7.40;3.42;;;;;;;-144.30;57.51;85044.59;5070719;28;20192;-49
2023/09/10 05:01:14;;;;;;;3.63;3.30;;;;;;;-144.30;56.60;85002.84;5071146;28;20294;-57
2023/09/10 05:03:42;;;;;;;9.00;3.87;;;;;;;-144.30;53.85;84819.97;5071502;28;20192;-49
2023/09/10 05:06:09;;;;;;;7.32;4.03;;;;;;;-144.30;50.87;84680.84;5070884;28;20970;-57
2023/09/10 05:08:37;;;;;;;6.30;3.60;;;;;;;-144.30;47.31;84509.94;5071459;28;20200;-50
2023/09/10 05:11:05;;;;;;;4.03;3.55;;;;;;;-144.30;44.26;84299.25;5069920;28;20208;-56
2023/09/10 05:13:32;;;;;;;9.57;4.40;;;;;;;-144.30;41.35;84134.31;5068251;28;20726;-56
2023/09/10 05:15:59;;;;;;;3.90;3.58;;;;;;;-144.30;39.41;83971.38;5071045;28;20196;-56
2023/09/10 05:18:26;;;;;;;4.15;3.83;;;;;;;-144.30;38.30;83820.34;5071001;28;20232;-56
2023/09/10 05:20:53;;;;;;;3.50;3.30;;;;;;;-144.30;37.38;83802.47;5070765;28;20203;-49
2023/09/10 05:23:20;;;;;;;6.82;4.22;;;;;;;-144.30;36.68;83721.00;5071052;28;20617;-49
2023/09/10 05:25:49;;;;;;;4.85;3.35;;;;;;;-144.30;35.46;83639.53;5071189;28;20192;-56
2023/09/10 05:28:16;;;;;;;3.92;3.65;;;;;;;-144.30;34.83;83462.72;5071280;28;20227;-50
2023/09/10 05:30:43;;;;;;;4.55;4.15;;;;;;;-144.30;34.02;83377.28;5071058;28;20195;-58
2023/09/10 05:33:10;;;;;;;5.55;5.00;;;;;;;-144.30;33.29;83311.72;5071239;28;20731;-58
2023/09/10 05:35:36;;;;;;;6.15;5.03;;;;;;;-144.30;32.77;83210.38;5070660;28;20200;-51
2023/09/10 05:38:04;;;;;;;15.65;13.05;;;;;;;-144.30;32.27;83202.44;5070374;28;20200;-50
2023/09/10 05:40:36;;;;;;;11.93;7.78;;;;;;;-144.30;31.82;83117.03;5065453;28;20582;-51
2023/09/10 05:43:05;;;;;;;14.48;5.90;;;;;;;-144.30;31.57;83134.91;5070441;28;20257;-50
2023/09/10 05:45:33;;;;;;;9.60;8.50;;;;;;;-144.30;31.73;83166.69;5070691;28;20280;-49
2023/09/10 05:48:00;;;;;;;19.23;16.00;;;;;;;-144.30;31.62;83142.84;5070829;28;20273;-50
2023/09/10 05:50:27;;;;;;;11.60;10.27;;;;;;;-144.30;31.03;83103.13;5070254;28;20219;-56
2023/09/10 05:52:56;;;;;;;6.80;5.97;;;;;;;-144.30;30.89;83087.22;5070779;28;20692;-57
2023/09/10 05:55:24;;;;;;;4.25;3.90;;;;;;;-144.30;30.66;82991.88;5070692;28;20196;-50
2023/09/10 05:57:52;;;;;;;9.75;4.50;;;;;;;-144.30;30.40;82991.88;5070437;28;20577;-51
2023/09/10 06:00:21;;;;;;;4.72;4.25;;;;;;;-144.30;30.46;82894.53;5069882;28;20257;-51
2023/09/10 06:02:49;;;;;;;8.75;5.65;;;;;;;-144.30;30.48;82944.19;5070084;28;20275;-50
2023/09/10 06:05:16;;;;;;;3.65;3.40;;;;;;;-144.30;30.10;82876.66;5069563;28;20192;-58
2023/09/10 06:07:43;;;;;;;3.80;3.22;;;;;;;-144.30;29.76;82803.16;5070096;28;20282;-51
2023/09/10 06:10:10;;;;;;;6.75;5.10;;;;;;;-144.30;29.29;82709.78;5070092;28;20275;-51
2023/09/10 06:12:37;;;;;;;5.80;3.63;;;;;;;-144.30;28.86;82544.91;5066871;28;20203;-58
2023/09/10 06:15:05;;;;;;;14.70;12.88;;;;;;;-144.30;28.22;82505.19;5069972;28;20200;-58
2023/09/10 06:17:34;;;;;;;17.70;12.60;;;;;;;-144.30;28.26;82546.91;5069420;28;20223;-57
2023/09/10 06:20:02;;;;;;;6.07;3.85;;;;;;;-144.30;27.96;82568.75;5063885;28;20207;-51
2023/09/10 06:22:29;;;;;;;2.92;2.72;;;;;;;-144.30;28.13;82423.75;5056931;28;20204;-50
2023/09/10 06:24:56;;;;;;;3.80;3.50;;;;;;;-144.30;27.76;82393.97;5069337;28;20192;-51
2023/09/10 06:27:23;;;;;;;4.72;4.30;;;;;;;-144.30;27.79;82393.97;5069617;28;20192;-52
2023/09/10 06:29:50;;;;;;;5.25;4.60;;;;;;;-144.30;27.12;82223.16;5069269;28;20196;-51
2023/09/10 06:32:17;;;;;;;4.90;3.80;;;;;;;-144.30;26.99;82141.72;5068992;28;20640;-57
2023/09/10 06:34:45;;;;;;;6.10;3.20;;;;;;;-144.30;26.30;81835.88;5069620;28;20649;-57
2023/09/10 06:37:12;;;;;;;6.10;3.40;;;;;;;-144.30;25.83;81732.63;5068078;28;20441;-57
2023/09/10 06:39:39;;;;;;;4.32;2.95;;;;;;;-144.30;25.83;81611.47;5069849;28;20196;-57
2023/09/10 06:42:08;;;;;;;5.10;3.20;;;;;;;-144.30;25.60;81627.38;5069991;28;20203;-58
2023/09/10 06:44:35;;;;;;;4.95;2.47;;;;;;;-144.30;25.32;81549.94;5069749;28;20191;-51
2023/09/10 06:47:02;;;;;;;10.68;6.75;;;;;;;-144.30;25.27;81466.53;5069815;28;20199;-51
2023/09/10 06:49:29;;;;;;;5.70;5.20;;;;;;;-144.30;25.07;81510.22;5069500;28;20199;-52
2023/09/10 06:51:57;;;;;;;9.30;3.40;;;;;;;-144.30;24.94;81526.09;5069251;28;20681;-57
2023/09/10 06:54:24;;;;;;;4.60;3.97;;;;;;;-144.30;24.93;81530.06;5069317;28;20218;-57
2023/09/10 06:56:51;;;;;;;5.30;4.95;;;;;;;-144.30;24.93;81480.44;5069678;28;20195;-57
2023/09/10 06:59:18;;;;;;;5.68;4.40;;;;;;;-144.30;24.72;81335.47;5068249;28;20489;-56
2023/09/10 07:01:45;;;;;;;6.25;4.60;;;;;;;-144.30;24.21;81228.25;5069750;28;20205;-51
2023/09/10 07:04:20;;;;;;;11.05;9.65;;;;;;;-144.30;23.65;81077.34;5069440;28;20281;-56
2023/09/10 07:06:48;;;;;;;5.03;4.38;;;;;;;-144.30;23.99;81208.41;5068960;28;20287;-56
2023/09/10 07:09:21;;;;;;;9.32;8.23;;;;;;;-144.30;23.77;81017.78;5069311;28;20201;-52
2023/09/10 07:11:47;;;;;;;4.80;3.30;;;;;;;-144.30;23.89;81150.81;5069001;28;20203;-51
2023/09/10 07:14:14;;;;;;;9.10;5.20;;;;;;;-144.30;24.38;81319.59;5069175;28;20225;-51
2023/09/10 07:16:41;;;;;;;35.33;13.82;;;;;;;-144.30;23.89;81252.09;5069052;28;20191;-50
2023/09/10 07:19:08;;;;;;;6.22;3.42;;;;;;;-144.30;23.82;81164.72;5069259;28;20203;-51
2023/09/10 07:21:35;;;;;;;8.60;3.97;;;;;;;-144.30;23.68;81097.22;5065190;28;20236;-52
2023/09/10 07:24:06;;;;;;;4.03;3.42;;;;;;;-144.30;24.10;80980.06;5069049;28;20197;-56
2023/09/10 07:26:34;;;;;;;5.20;4.68;;;;;;;-144.30;23.72;80874.84;5069001;28;20209;-52
2023/09/10 07:29:01;;;;;;;17.13;15.50;;;;;;;-144.30;22.78;80632.66;5069504;28;20201;-51
2023/09/10 07:31:28;;;;;;;5.32;3.53;;;;;;;-144.30;22.51;80521.47;5068026;28;20203;-57
2023/09/10 07:33:55;;;;;;;4.97;4.65;;;;;;;-144.30;22.68;80348.78;5069360;28;20217;-51
2023/09/10 07:36:22;;;;;;;3.75;3.47;;;;;;;-144.30;22.27;80128.44;5071079;28;20282;-57
2023/09/10 07:38:50;;;;;;;9.32;8.52;;;;;;;-144.30;22.00;80370.59;5071184;28;20199;-58
2023/09/10 07:41:16;;;;;;;8.02;3.88;;;;;;;-144.30;22.38;80513.53;5071571;28;20195;-58
2023/09/10 07:43:45;;;;;;;4.32;3.97;;;;;;;-144.30;22.24;80549.28;5072352;28;20671;-58
2023/09/10 07:46:12;;;;;;;3.13;2.85;;;;;;;-144.30;22.33;80497.66;5071576;28;20205;-59
2023/09/10 07:48:39;;;;;;;2.85;2.67;;;;;;;-144.30;21.93;80305.09;5072520;28;20207;-59
2023/09/10 07:51:06;;;;;;;7.03;2.50;;;;;;;-144.30;21.75;80199.91;5071854;28;20195;-58
2023/09/10 07:53:33;;;;;;;2.97;2.78;;;;;;;-144.30;21.50;80021.25;5073103;28;20292;-52
2023/09/10 07:56:00;;;;;;;2.92;2.35;;;;;;;-144.30;21.15;79795.00;5073027;28;20202;-58
2023/09/10 07:58:27;;;;;;;3.25;2.95;;;;;;;-144.30;21.30;79816.81;5072595;28;20195;-58
2023/09/10 08:00:57;;;;;;;3.97;3.67;;;;;;;-144.30;20.74;79396.09;5072638;28;20202;-58
2023/09/10 08:03:24;;;;;;;8.07;3.47;;;;;;;-144.30;20.64;79441.75;5072508;28;20202;-59
2023/09/10 08:05:51;;;;;;;3.50;2.72;;;;;;;-144.30;20.46;79296.88;5071946;28;20217;-51
2023/09/10 08:08:18;;;;;;;6.10;2.85;;;;;;;-144.30;20.47;79021.03;5072642;28;20199;-54
2023/09/10 08:10:46;;;;;;;2.72;2.53;;;;;;;-144.30;20.13;78890.09;5072619;28;20196;-59
2023/09/10 08:13:13;;;;;;;4.32;3.03;;;;;;;-144.30;20.06;78999.22;5072389;28;20211;-53
2023/09/10 08:15:40;;;;;;;3.28;3.05;;;;;;;-144.30;20.33;79044.84;5072421;28;20691;-51
2023/09/10 08:18:10;;;;;;;2.80;2.60;;;;;;;-144.30;20.18;78989.31;5072251;28;20237;-51
2023/09/10 08:20:38;;;;;;;4.50;2.97;;;;;;;-144.30;20.01;78909.94;5071757;28;20195;-49
2023/09/10 08:23:05;;;;;;;5.22;2.90;;;;;;;-144.30;19.81;78588.50;5072336;28;20196;-50
2023/09/10 08:25:32;;;;;;;3.17;2.60;;;;;;;-144.30;19.92;78687.72;5072086;28;20191;-52
2023/09/10 08:28:00;;;;;;;3.03;2.55;;;;;;;-144.30;19.84;79195.66;5071486;28;20199;-51
2023/09/10 08:30:27;;;;;;;3.22;3.00;;;;;;;-144.30;20.01;79247.25;5070697;28;20329;-51
2023/09/10 08:32:54;;;;;;;3.10;2.75;;;;;;;-144.30;20.16;79406.00;5071183;28;20195;-52
2023/09/10 08:35:24;;;;;;;6.20;2.80;;;;;;;-144.30;20.96;80422.22;5072035;28;20219;-51
2023/09/10 08:37:50;;;;;;;4.18;3.10;;;;;;;-144.30;22.44;81085.31;5072483;28;20207;-51
2023/09/10 08:40:17;;;;;;;4.18;3.08;;;;;;;-144.30;23.23;81653.19;5072116;28;20199;-50
2023/09/10 08:42:49;;;;;;;5.88;3.00;;;;;;;-144.30;24.43;82109.94;5072038;28;20206;-50
2023/09/10 08:45:16;;;;;;;4.47;3.30;;;;;;;-144.30;25.25;82344.31;5071507;28;20196;-51
2023/09/10 08:47:44;;;;;;;8.82;3.65;;;;;;;-144.30;25.59;82535.00;5071465;28;20223;-50
2023/09/10 08:50:12;;;;;;;7.15;3.35;;;;;;;-144.30;26.53;82689.91;5071964;28;20200;-51
2023/09/10 08:52:43;;;;;;;10.80;3.17;;;;;;;-144.30;26.47;82749.50;5072006;28;20199;-57
2023/09/10 08:55:12;;;;;;;7.25;3.53;;;;;;;-144.30;26.79;82777.31;5071897;28;20220;-58
2023/09/10 08:57:40;;;;;;;3.53;3.13;;;;;;;-144.30;26.89;82781.28;5071802;28;20202;-58
2023/09/10 09:00:12;;;;;;;5.45;3.58;;;;;;;-144.30;27.04;82789.25;5071686;28;20196;-58
2023/09/10 09:02:40;;;;;;;3.75;3.45;;;;;;;-144.30;27.23;82773.34;5071793;28;20212;-58
2023/09/10 09:05:08;;;;;;;11.95;3.97;;;;;;;-144.30;27.21;82876.66;5071673;28;20192;-58
2023/09/10 09:07:42;;;;;;;3.67;3.35;;;;;;;-144.30;27.89;82979.94;5071671;28;20558;-58
2023/09/10 09:10:14;;;;;;;3.53;3.33;;;;;;;-144.30;28.71;83045.50;5071556;28;20198;-57
2023/09/10 09:12:42;;;;;;;3.58;3.22;;;;;;;-144.30;28.69;83107.09;5071454;28;20200;-57
2023/09/10 09:15:10;;;;;;;4.57;3.70;;;;;;;-144.30;29.00;83142.84;5071579;28;20231;-57
2023/09/10 09:17:39;;;;;;;5.20;3.47;;;;;;;-144.30;28.93;83166.69;5071262;28;20773;-57
2023/09/10 09:20:11;;;;;;;4.32;3.20;;;;;;;-144.30;28.88;83174.63;5071654;28;20261;-49
2023/09/10 09:22:42;;;;;;;6.78;3.35;;;;;;;-144.30;29.58;83162.72;5071659;28;20218;-50
2023/09/10 09:25:11;;;;;;;3.55;3.25;;;;;;;-144.30;29.14;83113.03;5071350;28;20258;-51
2023/09/10 09:27:39;;;;;;;5.60;3.47;;;;;;;-144.30;28.95;83065.38;5067199;28;20573;-51
2023/09/10 09:30:08;;;;;;;8.20;3.65;;;;;;;-144.30;29.12;83122.97;5071047;28;20204;-51
2023/09/10 09:32:37;;;;;;;8.40;3.70;;;;;;;-144.30;29.14;83140.84;5058620;28;20192;-51
2023/09/10 09:35:04;;;;;;;4.22;3.88;;;;;;;-144.30;29.18;83087.22;5070130;28;20273;-51
2023/09/10 09:37:32;;;;;;;3.85;3.55;;;;;;;-144.30;28.56;82960.06;5072407;28;20199;-50
2023/09/10 09:40:00;;;;;;;4.80;4.40;;;;;;;-144.30;27.23;82511.16;5070134;28;20212;-57
2023/09/10 09:42:29;;;;;;;6.22;3.92;;;;;;;-144.30;26.74;82312.53;5069613;28;20200;-57
2023/09/10 09:44:57;;;;;;;5.15;4.68;;;;;;;-144.30;26.13;82292.66;5070935;28;20299;-57
2023/09/10 09:47:24;;;;;;;5.68;4.57;;;;;;;-144.30;26.59;82332.38;5070492;28;20570;-57
2023/09/10 09:49:51;;;;;;;7.28;4.50;;;;;;;-144.30;26.94;82590.59;5070200;28;20228;-57
2023/09/10 09:52:19;;;;;;;11.40;4.63;;;;;;;-144.30;27.55;82767.38;5068477;28;20196;-57
2023/09/10 09:54:47;;;;;;;5.15;4.57;;;;;;;-144.30;28.21;82858.78;5068819;28;20822;-56
2023/09/10 09:57:14;;;;;;;10.13;4.63;;;;;;;-144.30;28.69;83003.78;5064548;28;20200;-57
2023/09/10 09:59:42;;;;;;;4.53;4.13;;;;;;;-144.30;29.17;83099.13;5069389;28;20202;-49
2023/09/10 10:02:14;;;;;;;4.57;4.15;;;;;;;-144.30;29.92;83164.69;5069760;28;20282;-51
2023/09/10 10:04:41;;;;;;;5.53;4.20;;;;;;;-144.30;29.76;83210.38;5069548;28;20192;-58
2023/09/10 10:07:09;;;;;;;6.35;4.05;;;;;;;-144.30;30.18;83226.28;5069708;28;20207;-51
2023/09/10 10:09:37;;;;;;;10.65;4.50;;;;;;;-144.30;30.72;83236.22;5070032;28;20671;-51
2023/09/10 10:12:05;;;;;;;5.55;4.20;;;;;;;-144.30;30.72;83252.09;5069215;28;20199;-50
2023/09/10 10:14:33;;;;;;;6.57;3.97;;;;;;;-144.30;30.61;83198.47;5068970;28;20223;-51
2023/09/10 10:17:03;;;;;;;6.10;3.40;;;;;;;-144.30;30.09;83192.50;5069378;28;20373;-56
2023/09/10 10:19:31;;;;;;;7.78;4.03;;;;;;;-144.30;30.55;83178.59;5065060;28;20204;-57
2023/09/10 10:21:59;;;;;;;5.32;3.72;;;;;;;-144.30;30.55;83226.28;5069480;28;20204;-51
2023/09/10 10:24:26;;;;;;;5.00;4.03;;;;;;;-144.30;30.21;83270.00;5069643;28;20192;-57
2023/09/10 10:26:53;;;;;;;3.85;3.47;;;;;;;-144.30;30.52;83273.97;5069945;28;20585;-57
2023/09/10 10:29:22;;;;;;;8.52;4.05;;;;;;;-144.30;30.20;83611.72;5069952;28;20614;-51
2023/09/10 10:31:56;;;;;;;4.30;3.90;;;;;;;-144.30;30.87;83285.88;5069400;28;20408;-49
2023/09/10 10:34:25;;;;;;;4.35;4.00;;;;;;;-144.30;31.15;83277.94;5068518;28;20221;-57
2023/09/10 10:37:03;;;;;;;6.93;4.30;;;;;;;-144.30;31.32;83289.84;5066920;28;20184;-50
2023/09/10 10:39:39;;;;;;;4.82;3.85;;;;;;;-144.30;30.86;83315.69;5069246;28;20198;-57
2023/09/10 10:42:10;;;;;;;5.85;4.72;;;;;;;-144.30;31.03;83361.38;5069254;28;20200;-57
2023/09/10 10:44:38;;;;;;;6.95;3.63;;;;;;;-144.30;31.09;83407.06;5069427;28;20582;-51
2023/09/10 10:47:13;;;;;;;5.15;3.97;;;;;;;-144.30;31.01;83347.47;5068927;28;20191;-57
2023/09/10 10:49:49;;;;;;;5.53;4.55;;;;;;;-144.30;31.06;83230.25;5067364;28;20194;-56
2023/09/10 10:52:19;;;;;;;5.25;4.75;;;;;;;-144.30;31.18;83327.59;5067043;28;20199;-51
2023/09/10 10:54:48;;;;;;;4.65;3.75;;;;;;;-144.30;31.00;83335.56;5069014;28;20216;-56
2023/09/10 10:57:16;;;;;;;4.13;3.42;;;;;;;-144.30;30.56;83270.00;5069792;28;20192;-58
2023/09/10 10:59:43;;;;;;;9.48;3.42;;;;;;;-144.30;30.68;83256.09;5068988;28;20196;-55
2023/09/10 11:02:22;;;;;;;11.80;6.50;;;;;;;-144.30;30.28;83266.03;5048462;28;20197;-49
2023/09/10 11:04:58;;;;;;;13.40;5.15;;;;;;;-144.30;30.79;83220.31;5054173;28;20699;-48
2023/09/10 11:07:26;;;;;;;16.55;7.97;;;;;;;-144.30;30.67;83289.84;5067042;28;20672;-50
2023/09/10 11:09:53;;;;;;;6.88;4.38;;;;;;;-144.30;30.58;83329.59;5068752;28;20294;-49
2023/09/10 11:12:20;;;;;;;5.30;4.22;;;;;;;-144.30;30.45;83313.69;5069365;28;20203;-49
2023/09/10 11:15:10;;;;;;;6.53;5.50;;;;;;;-144.30;30.28;83305.75;5068231;28;20234;-55
2023/09/10 11:17:37;;;;;;;6.40;3.83;;;;;;;-144.30;30.35;83315.69;5067747;28;20322;-55
2023/09/10 11:20:08;;;;;;;5.00;3.50;;;;;;;-144.30;30.20;83270.00;5058465;28;20268;-56